sensor_id;sensor_type;location;lat;lon;timestamp;temperature;humidity
25438;DHT22;13364;49.084;9.978;2022-11-15T00:02:20;10.40;99.90
25438;DHT22;13364;49.084;9.978;2022-11-15T00:05:06;10.40;99.90
25438;DHT22;13364;49.084;9.978;2022-11-15T00:07:51;10.40;99.90
25438;DHT22;13364;49.084;9.978;2022-11-15T00:10:40;10.40;99.90
25438;DHT22;13364;49.084;9.978;2022-11-15T00:13:26;10.40;99.90
25438;DHT22;13364;49.084;9.978;2022-11-15T00:16:13;10.50;99.90
25438;DHT22;13364;49.084;9.978;2022-11-15T00:18:58;10.50;99.90
25438;DHT22;13364;49.084;9.978;2022-11-15T00:21:44;10.60;99.90
25438;DHT22;13364;49.084;9.978;2022-11-15T00:24:29;10.60;99.90
25438;DHT22;13364;49.084;9.978;2022-11-15T00:27:14;10.60;99.90
25438;DHT22;13364;49.084;9.978;2022-11-15T00:30:00;10.60;99.90
25438;DHT22;13364;49.084;9.978;2022-11-15T00:32:46;10.70;99.90
25438;DHT22;13364;49.084;9.978;2022-11-15T00:35:33;10.70;99.90
25438;DHT22;13364;49.084;9.978;2022-11-15T00:38:19;10.70;99.90
25438;DHT22;13364;49.084;9.978;2022-11-15T00:41:05;10.70;99.90
25438;DHT22;13364;49.084;9.978;2022-11-15T00:43:54;10.70;99.90
25438;DHT22;13364;49.084;9.978;2022-11-15T00:46:40;10.80;99.90
25438;DHT22;13364;49.084;9.978;2022-11-15T00:49:25;10.80;99.90
25438;DHT22;13364;49.084;9.978;2022-11-15T00:52:10;10.80;99.90
25438;DHT22;13364;49.084;9.978;2022-11-15T00:54:56;10.80;99.90
25438;DHT22;13364;49.084;9.978;2022-11-15T00:57:41;10.80;99.90
25438;DHT22;13364;49.084;9.978;2022-11-15T01:00:26;10.80;99.90
25438;DHT22;13364;49.084;9.978;2022-11-15T01:03:13;10.80;99.90
25438;DHT22;13364;49.084;9.978;2022-11-15T01:06:02;10.80;99.90
25438;DHT22;13364;49.084;9.978;2022-11-15T01:08:48;10.80;99.90
25438;DHT22;13364;49.084;9.978;2022-11-15T01:11:33;10.80;99.90
25438;DHT22;13364;49.084;9.978;2022-11-15T01:14:18;10.80;99.90
25438;DHT22;13364;49.084;9.978;2022-11-15T01:17:09;10.80;99.90
25438;DHT22;13364;49.084;9.978;2022-11-15T01:19:55;10.80;99.90
25438;DHT22;13364;49.084;9.978;2022-11-15T01:22:40;10.70;99.90
25438;DHT22;13364;49.084;9.978;2022-11-15T01:25:26;10.70;99.90
25438;DHT22;13364;49.084;9.978;2022-11-15T01:28:11;10.70;99.90
25438;DHT22;13364;49.084;9.978;2022-11-15T01:30:58;10.70;99.90
25438;DHT22;13364;49.084;9.978;2022-11-15T01:33:45;10.60;99.90
25438;DHT22;13364;49.084;9.978;2022-11-15T01:36:31;10.60;99.90
25438;DHT22;13364;49.084;9.978;2022-11-15T01:39:17;10.60;99.90
25438;DHT22;13364;49.084;9.978;2022-11-15T01:42:03;10.50;99.90
25438;DHT22;13364;49.084;9.978;2022-11-15T01:44:52;10.40;99.90
25438;DHT22;13364;49.084;9.978;2022-11-15T01:47:45;10.40;99.90
25438;DHT22;13364;49.084;9.978;2022-11-15T01:50:32;10.30;99.90
25438;DHT22;13364;49.084;9.978;2022-11-15T01:53:19;10.30;99.90
25438;DHT22;13364;49.084;9.978;2022-11-15T01:56:08;10.20;99.90
25438;DHT22;13364;49.084;9.978;2022-11-15T01:58:57;10.20;99.90
25438;DHT22;13364;49.084;9.978;2022-11-15T02:01:44;10.10;99.90
25438;DHT22;13364;49.084;9.978;2022-11-15T02:04:32;10.10;99.90
25438;DHT22;13364;49.084;9.978;2022-11-15T02:07:19;10.10;99.90
25438;DHT22;13364;49.084;9.978;2022-11-15T02:10:13;10.00;99.90
25438;DHT22;13364;49.084;9.978;2022-11-15T02:13:00;10.00;99.90
25438;DHT22;13364;49.084;9.978;2022-11-15T02:16:02;10.00;99.90
25438;DHT22;13364;49.084;9.978;2022-11-15T02:18:54;9.90;99.90
25438;DHT22;13364;49.084;9.978;2022-11-15T02:25:22;9.80;99.90
25438;DHT22;13364;49.084;9.978;2022-11-15T02:31:32;9.60;99.90
25438;DHT22;13364;49.084;9.978;2022-11-15T02:37:34;9.40;99.90
25438;DHT22;13364;49.084;9.978;2022-11-15T02:40:41;9.30;99.90
25438;DHT22;13364;49.084;9.978;2022-11-15T02:43:45;9.20;99.90
25438;DHT22;13364;49.084;9.978;2022-11-15T02:46:51;9.10;99.90
25438;DHT22;13364;49.084;9.978;2022-11-15T02:50:07;9.00;99.90
25438;DHT22;13364;49.084;9.978;2022-11-15T02:52:54;8.90;99.90
25438;DHT22;13364;49.084;9.978;2022-11-15T02:55:51;8.80;99.90
25438;DHT22;13364;49.084;9.978;2022-11-15T02:59:03;8.70;99.90
25438;DHT22;13364;49.084;9.978;2022-11-15T03:05:04;8.60;99.90
25438;DHT22;13364;49.084;9.978;2022-11-15T03:08:02;8.50;99.90
25438;DHT22;13364;49.084;9.978;2022-11-15T03:14:06;8.30;99.90
25438;DHT22;13364;49.084;9.978;2022-11-15T03:17:18;8.30;99.90
25438;DHT22;13364;49.084;9.978;2022-11-15T03:20:09;8.20;99.90
25438;DHT22;13364;49.084;9.978;2022-11-15T03:22:58;8.10;99.90
25438;DHT22;13364;49.084;9.978;2022-11-15T03:25:48;8.10;99.90
25438;DHT22;13364;49.084;9.978;2022-11-15T03:28:43;8.00;99.90
25438;DHT22;13364;49.084;9.978;2022-11-15T03:31:33;7.90;99.90
25438;DHT22;13364;49.084;9.978;2022-11-15T03:37:51;7.80;99.90
25438;DHT22;13364;49.084;9.978;2022-11-15T03:40:42;7.80;99.90
25438;DHT22;13364;49.084;9.978;2022-11-15T03:43:47;7.80;99.90
25438;DHT22;13364;49.084;9.978;2022-11-15T03:46:51;7.70;99.90
25438;DHT22;13364;49.084;9.978;2022-11-15T03:49:44;7.70;99.90
25438;DHT22;13364;49.084;9.978;2022-11-15T03:52:33;7.70;99.90
25438;DHT22;13364;49.084;9.978;2022-11-15T03:55:20;7.60;99.90
25438;DHT22;13364;49.084;9.978;2022-11-15T03:58:06;7.60;99.90
25438;DHT22;13364;49.084;9.978;2022-11-15T04:00:51;7.60;99.90
25438;DHT22;13364;49.084;9.978;2022-11-15T04:03:37;7.50;99.90
25438;DHT22;13364;49.084;9.978;2022-11-15T04:06:22;7.40;99.90
25438;DHT22;13364;49.084;9.978;2022-11-15T04:09:08;7.40;99.90
25438;DHT22;13364;49.084;9.978;2022-11-15T04:11:53;7.30;99.90
25438;DHT22;13364;49.084;9.978;2022-11-15T04:14:38;7.30;99.90
25438;DHT22;13364;49.084;9.978;2022-11-15T04:17:55;7.30;99.90
25438;DHT22;13364;49.084;9.978;2022-11-15T04:20:41;7.20;99.90
25438;DHT22;13364;49.084;9.978;2022-11-15T04:23:52;7.10;99.90
25438;DHT22;13364;49.084;9.978;2022-11-15T04:26:49;7.10;99.90
25438;DHT22;13364;49.084;9.978;2022-11-15T04:29:35;7.00;99.90
25438;DHT22;13364;49.084;9.978;2022-11-15T04:32:20;7.00;99.90
25438;DHT22;13364;49.084;9.978;2022-11-15T04:35:06;6.90;99.90
25438;DHT22;13364;49.084;9.978;2022-11-15T04:37:52;6.90;99.90
25438;DHT22;13364;49.084;9.978;2022-11-15T04:40:38;7.50;99.90
25438;DHT22;13364;49.084;9.978;2022-11-15T04:43:23;6.90;99.90
25438;DHT22;13364;49.084;9.978;2022-11-15T04:46:09;6.90;99.90
25438;DHT22;13364;49.084;9.978;2022-11-15T04:48:55;6.90;99.90
25438;DHT22;13364;49.084;9.978;2022-11-15T04:51:43;6.90;99.90
25438;DHT22;13364;49.084;9.978;2022-11-15T04:54:29;6.90;99.90
25438;DHT22;13364;49.084;9.978;2022-11-15T04:57:14;7.70;99.90
25438;DHT22;13364;49.084;9.978;2022-11-15T05:00:00;7.40;99.90
25438;DHT22;13364;49.084;9.978;2022-11-15T05:02:46;6.90;99.90
25438;DHT22;13364;49.084;9.978;2022-11-15T05:05:50;7.40;99.90
25438;DHT22;13364;49.084;9.978;2022-11-15T05:08:35;6.90;99.90
25438;DHT22;13364;49.084;9.978;2022-11-15T05:11:22;6.90;99.90
25438;DHT22;13364;49.084;9.978;2022-11-15T05:14:07;6.90;99.90
25438;DHT22;13364;49.084;9.978;2022-11-15T05:16:53;7.00;99.90
25438;DHT22;13364;49.084;9.978;2022-11-15T05:19:38;6.90;99.90
25438;DHT22;13364;49.084;9.978;2022-11-15T05:22:25;6.90;99.90
25438;DHT22;13364;49.084;9.978;2022-11-15T05:25:10;7.00;99.90
25438;DHT22;13364;49.084;9.978;2022-11-15T05:27:56;7.00;99.90
25438;DHT22;13364;49.084;9.978;2022-11-15T05:30:41;7.00;99.90
25438;DHT22;13364;49.084;9.978;2022-11-15T05:33:27;7.00;99.90
25438;DHT22;13364;49.084;9.978;2022-11-15T05:36:33;7.00;99.90
25438;DHT22;13364;49.084;9.978;2022-11-15T05:39:19;7.00;99.90
25438;DHT22;13364;49.084;9.978;2022-11-15T05:42:13;7.00;99.90
25438;DHT22;13364;49.084;9.978;2022-11-15T05:45:00;7.00;99.90
25438;DHT22;13364;49.084;9.978;2022-11-15T05:47:48;7.30;99.90
25438;DHT22;13364;49.084;9.978;2022-11-15T05:55:05;7.10;99.90
25438;DHT22;13364;49.084;9.978;2022-11-15T05:57:51;7.10;99.90
25438;DHT22;13364;49.084;9.978;2022-11-15T06:00:36;7.10;99.90
25438;DHT22;13364;49.084;9.978;2022-11-15T06:03:22;7.00;99.90
25438;DHT22;13364;49.084;9.978;2022-11-15T06:06:07;7.30;99.90
25438;DHT22;13364;49.084;9.978;2022-11-15T06:09:00;7.30;99.90
25438;DHT22;13364;49.084;9.978;2022-11-15T06:11:46;7.00;99.90
25438;DHT22;13364;49.084;9.978;2022-11-15T06:14:31;7.40;99.90
25438;DHT22;13364;49.084;9.978;2022-11-15T06:17:17;7.00;99.90
25438;DHT22;13364;49.084;9.978;2022-11-15T06:20:02;7.40;99.90
25438;DHT22;13364;49.084;9.978;2022-11-15T06:22:48;6.90;99.90
25438;DHT22;13364;49.084;9.978;2022-11-15T06:25:33;7.10;99.90
25438;DHT22;13364;49.084;9.978;2022-11-15T06:28:19;6.80;99.90
25438;DHT22;13364;49.084;9.978;2022-11-15T06:31:05;7.70;99.90
25438;DHT22;13364;49.084;9.978;2022-11-15T06:33:51;6.80;99.90
25438;DHT22;13364;49.084;9.978;2022-11-15T06:36:37;6.80;99.90
25438;DHT22;13364;49.084;9.978;2022-11-15T06:39:23;6.90;99.90
25438;DHT22;13364;49.084;9.978;2022-11-15T06:46:27;6.90;99.90
25438;DHT22;13364;49.084;9.978;2022-11-15T06:49:13;7.00;99.90
25438;DHT22;13364;49.084;9.978;2022-11-15T06:51:58;7.00;99.90
25438;DHT22;13364;49.084;9.978;2022-11-15T06:54:44;6.90;99.90
25438;DHT22;13364;49.084;9.978;2022-11-15T06:57:29;7.00;99.90
25438;DHT22;13364;49.084;9.978;2022-11-15T07:00:16;7.20;99.90
25438;DHT22;13364;49.084;9.978;2022-11-15T07:03:02;7.10;99.90
25438;DHT22;13364;49.084;9.978;2022-11-15T07:05:56;7.20;99.90
25438;DHT22;13364;49.084;9.978;2022-11-15T07:08:49;7.10;99.90
25438;DHT22;13364;49.084;9.978;2022-11-15T07:11:35;7.00;99.90
25438;DHT22;13364;49.084;9.978;2022-11-15T07:14:20;7.20;99.90
25438;DHT22;13364;49.084;9.978;2022-11-15T07:17:06;7.10;99.90
25438;DHT22;13364;49.084;9.978;2022-11-15T07:19:51;7.10;99.90
25438;DHT22;13364;49.084;9.978;2022-11-15T07:22:37;7.20;99.90
25438;DHT22;13364;49.084;9.978;2022-11-15T07:25:22;7.20;99.90
25438;DHT22;13364;49.084;9.978;2022-11-15T07:28:08;7.30;99.90
25438;DHT22;13364;49.084;9.978;2022-11-15T07:30:53;7.40;99.90
25438;DHT22;13364;49.084;9.978;2022-11-15T07:33:39;7.50;99.90
25438;DHT22;13364;49.084;9.978;2022-11-15T07:36:25;7.50;99.90
25438;DHT22;13364;49.084;9.978;2022-11-15T07:39:10;7.60;99.90
25438;DHT22;13364;49.084;9.978;2022-11-15T07:41:57;7.70;99.90
25438;DHT22;13364;49.084;9.978;2022-11-15T07:45:01;7.70;99.90
25438;DHT22;13364;49.084;9.978;2022-11-15T07:47:48;7.90;99.90
25438;DHT22;13364;49.084;9.978;2022-11-15T07:50:34;8.00;99.90
25438;DHT22;13364;49.084;9.978;2022-11-15T07:53:19;8.10;99.90
25438;DHT22;13364;49.084;9.978;2022-11-15T07:56:08;8.30;99.90
25438;DHT22;13364;49.084;9.978;2022-11-15T07:58:53;8.40;99.90
25438;DHT22;13364;49.084;9.978;2022-11-15T08:01:39;8.60;99.90
25438;DHT22;13364;49.084;9.978;2022-11-15T08:04:25;8.70;99.90
25438;DHT22;13364;49.084;9.978;2022-11-15T08:07:11;8.90;99.90
25438;DHT22;13364;49.084;9.978;2022-11-15T08:09:56;9.00;99.90
25438;DHT22;13364;49.084;9.978;2022-11-15T08:12:42;9.10;99.90
25438;DHT22;13364;49.084;9.978;2022-11-15T08:15:29;9.30;99.90
25438;DHT22;13364;49.084;9.978;2022-11-15T08:18:18;9.50;99.90
25438;DHT22;13364;49.084;9.978;2022-11-15T08:21:04;9.60;99.90
25438;DHT22;13364;49.084;9.978;2022-11-15T08:23:49;9.80;99.90
25438;DHT22;13364;49.084;9.978;2022-11-15T08:26:35;10.00;99.90
25438;DHT22;13364;49.084;9.978;2022-11-15T08:29:20;10.30;99.90
25438;DHT22;13364;49.084;9.978;2022-11-15T08:32:05;10.70;99.90
25438;DHT22;13364;49.084;9.978;2022-11-15T08:34:52;11.00;99.90
25438;DHT22;13364;49.084;9.978;2022-11-15T08:37:38;11.40;99.90
25438;DHT22;13364;49.084;9.978;2022-11-15T08:40:24;11.70;99.90
25438;DHT22;13364;49.084;9.978;2022-11-15T08:43:10;11.80;99.90
25438;DHT22;13364;49.084;9.978;2022-11-15T08:45:58;12.00;99.90
25438;DHT22;13364;49.084;9.978;2022-11-15T08:48:44;12.10;99.90
25438;DHT22;13364;49.084;9.978;2022-11-15T08:51:30;12.30;99.90
25438;DHT22;13364;49.084;9.978;2022-11-15T08:54:15;12.40;99.90
25438;DHT22;13364;49.084;9.978;2022-11-15T08:57:00;12.60;99.90
25438;DHT22;13364;49.084;9.978;2022-11-15T08:59:46;12.80;99.90
25438;DHT22;13364;49.084;9.978;2022-11-15T09:02:32;12.90;99.90
25438;DHT22;13364;49.084;9.978;2022-11-15T09:05:17;13.00;99.90
25438;DHT22;13364;49.084;9.978;2022-11-15T09:08:04;13.20;99.90
25438;DHT22;13364;49.084;9.978;2022-11-15T09:11:10;13.40;99.90
25438;DHT22;13364;49.084;9.978;2022-11-15T09:13:56;13.60;99.90
25438;DHT22;13364;49.084;9.978;2022-11-15T09:16:41;13.70;99.90
25438;DHT22;13364;49.084;9.978;2022-11-15T09:19:27;13.90;99.90
25438;DHT22;13364;49.084;9.978;2022-11-15T09:22:12;14.10;99.90
25438;DHT22;13364;49.084;9.978;2022-11-15T09:24:58;14.30;99.90
25438;DHT22;13364;49.084;9.978;2022-11-15T09:27:44;14.40;99.90
25438;DHT22;13364;49.084;9.978;2022-11-15T09:30:29;14.50;99.90
25438;DHT22;13364;49.084;9.978;2022-11-15T09:33:15;14.60;99.90
25438;DHT22;13364;49.084;9.978;2022-11-15T09:36:05;14.70;99.90
25438;DHT22;13364;49.084;9.978;2022-11-15T09:38:51;14.70;99.90
25438;DHT22;13364;49.084;9.978;2022-11-15T09:45:34;15.00;99.90
25438;DHT22;13364;49.084;9.978;2022-11-15T09:51:35;15.10;99.90
25438;DHT22;13364;49.084;9.978;2022-11-15T09:57:04;15.10;99.90
25438;DHT22;13364;49.084;9.978;2022-11-15T10:03:13;15.00;99.90
25438;DHT22;13364;49.084;9.978;2022-11-15T10:05:50;14.90;99.90
25438;DHT22;13364;49.084;9.978;2022-11-15T10:11:11;14.70;99.90
25438;DHT22;13364;49.084;9.978;2022-11-15T10:14:18;14.70;99.90
25438;DHT22;13364;49.084;9.978;2022-11-15T10:41:29;14.20;99.90
25438;DHT22;13364;49.084;9.978;2022-11-15T10:49:27;14.20;99.90
25438;DHT22;13364;49.084;9.978;2022-11-15T10:51:58;14.20;99.90
25438;DHT22;13364;49.084;9.978;2022-11-15T10:54:28;14.20;99.90
25438;DHT22;13364;49.084;9.978;2022-11-15T10:56:59;14.20;99.90
25438;DHT22;13364;49.084;9.978;2022-11-15T10:59:29;14.30;99.90
25438;DHT22;13364;49.084;9.978;2022-11-15T11:04:53;14.40;99.90
25438;DHT22;13364;49.084;9.978;2022-11-15T11:07:26;14.40;99.90
25438;DHT22;13364;49.084;9.978;2022-11-15T11:10:04;14.40;99.90
25438;DHT22;13364;49.084;9.978;2022-11-15T11:12:51;14.50;99.90
25438;DHT22;13364;49.084;9.978;2022-11-15T11:15:18;14.50;99.90
25438;DHT22;13364;49.084;9.978;2022-11-15T11:18:00;14.60;99.90
25438;DHT22;13364;49.084;9.978;2022-11-15T11:37:40;14.70;99.90
25438;DHT22;13364;49.084;9.978;2022-11-15T11:40:43;14.80;99.90
25438;DHT22;13364;49.084;9.978;2022-11-15T11:49:01;14.70;99.90
25438;DHT22;13364;49.084;9.978;2022-11-15T11:51:45;14.70;99.90
25438;DHT22;13364;49.084;9.978;2022-11-15T11:55:11;14.80;99.90
25438;DHT22;13364;49.084;9.978;2022-11-15T12:00:22;14.90;99.90
25438;DHT22;13364;49.084;9.978;2022-11-15T12:03:11;15.00;99.90
25438;DHT22;13364;49.084;9.978;2022-11-15T12:05:40;15.10;99.90
25438;DHT22;13364;49.084;9.978;2022-11-15T12:10:45;15.40;99.90
25438;DHT22;13364;49.084;9.978;2022-11-15T12:13:21;15.50;99.90
25438;DHT22;13364;49.084;9.978;2022-11-15T12:15:53;15.50;99.90
25438;DHT22;13364;49.084;9.978;2022-11-15T12:18:23;15.60;99.90
25438;DHT22;13364;49.084;9.978;2022-11-15T12:21:07;15.70;99.90
25438;DHT22;13364;49.084;9.978;2022-11-15T12:23:48;15.70;99.90
25438;DHT22;13364;49.084;9.978;2022-11-15T12:26:34;15.70;99.90
25438;DHT22;13364;49.084;9.978;2022-11-15T12:32:18;15.70;99.90
25438;DHT22;13364;49.084;9.978;2022-11-15T12:34:49;15.60;99.90
25438;DHT22;13364;49.084;9.978;2022-11-15T12:42:42;15.50;99.90
25438;DHT22;13364;49.084;9.978;2022-11-15T12:47:52;15.50;99.90
25438;DHT22;13364;49.084;9.978;2022-11-15T12:50:52;15.50;99.90
25438;DHT22;13364;49.084;9.978;2022-11-15T12:53:31;15.60;99.90
25438;DHT22;13364;49.084;9.978;2022-11-15T12:59:06;15.40;99.90
25438;DHT22;13364;49.084;9.978;2022-11-15T13:07:03;15.30;99.90
25438;DHT22;13364;49.084;9.978;2022-11-15T13:12:11;15.20;99.90
25438;DHT22;13364;49.084;9.978;2022-11-15T13:30:53;15.00;99.90
25438;DHT22;13364;49.084;9.978;2022-11-15T13:33:43;15.00;99.90
25438;DHT22;13364;49.084;9.978;2022-11-15T13:36:24;14.90;99.90
25438;DHT22;13364;49.084;9.978;2022-11-15T13:39:12;14.90;99.90
25438;DHT22;13364;49.084;9.978;2022-11-15T13:41:49;14.80;99.90
25438;DHT22;13364;49.084;9.978;2022-11-15T13:44:30;14.80;99.90
25438;DHT22;13364;49.084;9.978;2022-11-15T13:47:19;14.80;99.90
25438;DHT22;13364;49.084;9.978;2022-11-15T13:49:46;14.70;99.90
25438;DHT22;13364;49.084;9.978;2022-11-15T13:52:14;14.70;99.90
25438;DHT22;13364;49.084;9.978;2022-11-15T13:57:24;14.60;99.90
25438;DHT22;13364;49.084;9.978;2022-11-15T13:59:54;14.60;99.90
25438;DHT22;13364;49.084;9.978;2022-11-15T14:02:31;14.60;99.90
25438;DHT22;13364;49.084;9.978;2022-11-15T14:05:04;14.50;99.90
25438;DHT22;13364;49.084;9.978;2022-11-15T14:07:39;14.50;99.90
25438;DHT22;13364;49.084;9.978;2022-11-15T14:10:29;14.50;99.90
25438;DHT22;13364;49.084;9.978;2022-11-15T14:12:57;14.40;99.90
25438;DHT22;13364;49.084;9.978;2022-11-15T14:15:26;14.40;99.90
25438;DHT22;13364;49.084;9.978;2022-11-15T14:17:54;14.40;99.90
25438;DHT22;13364;49.084;9.978;2022-11-15T14:20:34;14.40;99.90
25438;DHT22;13364;49.084;9.978;2022-11-15T14:23:19;14.30;99.90
25438;DHT22;13364;49.084;9.978;2022-11-15T14:25:54;14.30;99.90
25438;DHT22;13364;49.084;9.978;2022-11-15T14:30:53;14.20;99.90
25438;DHT22;13364;49.084;9.978;2022-11-15T14:33:32;14.20;99.90
25438;DHT22;13364;49.084;9.978;2022-11-15T14:36:12;14.20;99.90
25438;DHT22;13364;49.084;9.978;2022-11-15T14:38:40;14.30;99.90
25438;DHT22;13364;49.084;9.978;2022-11-15T14:41:23;14.10;99.90
25438;DHT22;13364;49.084;9.978;2022-11-15T14:43:51;14.00;99.90
25438;DHT22;13364;49.084;9.978;2022-11-15T14:46:18;13.90;99.90
25438;DHT22;13364;49.084;9.978;2022-11-15T14:48:46;13.90;99.90
25438;DHT22;13364;49.084;9.978;2022-11-15T14:51:15;13.90;99.90
25438;DHT22;13364;49.084;9.978;2022-11-15T14:53:44;13.90;99.90
25438;DHT22;13364;49.084;9.978;2022-11-15T14:56:12;13.80;99.90
25438;DHT22;13364;49.084;9.978;2022-11-15T14:58:39;13.80;99.90
25438;DHT22;13364;49.084;9.978;2022-11-15T15:01:36;13.70;99.90
25438;DHT22;13364;49.084;9.978;2022-11-15T15:04:03;13.60;99.90
25438;DHT22;13364;49.084;9.978;2022-11-15T15:06:30;13.60;99.90
25438;DHT22;13364;49.084;9.978;2022-11-15T15:08:57;13.50;99.90
25438;DHT22;13364;49.084;9.978;2022-11-15T15:11:26;13.50;99.90
25438;DHT22;13364;49.084;9.978;2022-11-15T15:13:54;13.40;99.90
25438;DHT22;13364;49.084;9.978;2022-11-15T15:16:24;13.30;99.90
25438;DHT22;13364;49.084;9.978;2022-11-15T15:18:51;13.20;99.90
25438;DHT22;13364;49.084;9.978;2022-11-15T15:21:28;13.20;99.90
25438;DHT22;13364;49.084;9.978;2022-11-15T15:24:02;13.10;99.90
25438;DHT22;13364;49.084;9.978;2022-11-15T15:26:29;13.00;99.90
25438;DHT22;13364;49.084;9.978;2022-11-15T15:29:00;13.00;99.90
25438;DHT22;13364;49.084;9.978;2022-11-15T15:31:27;12.90;99.90
25438;DHT22;13364;49.084;9.978;2022-11-15T15:33:54;12.80;99.90
25438;DHT22;13364;49.084;9.978;2022-11-15T15:36:21;12.70;99.90
25438;DHT22;13364;49.084;9.978;2022-11-15T15:38:48;12.60;99.90
25438;DHT22;13364;49.084;9.978;2022-11-15T15:41:18;12.50;99.90
25438;DHT22;13364;49.084;9.978;2022-11-15T15:43:45;12.40;99.90
25438;DHT22;13364;49.084;9.978;2022-11-15T15:46:15;12.40;99.90
25438;DHT22;13364;49.084;9.978;2022-11-15T15:51:56;12.20;99.90
25438;DHT22;13364;49.084;9.978;2022-11-15T15:54:23;12.10;99.90
25438;DHT22;13364;49.084;9.978;2022-11-15T15:56:50;12.10;99.90
25438;DHT22;13364;49.084;9.978;2022-11-15T15:59:22;12.10;99.90
25438;DHT22;13364;49.084;9.978;2022-11-15T16:01:49;12.00;99.90
25438;DHT22;13364;49.084;9.978;2022-11-15T16:04:16;11.90;99.90
25438;DHT22;13364;49.084;9.978;2022-11-15T16:06:43;11.90;99.90
25438;DHT22;13364;49.084;9.978;2022-11-15T16:09:16;11.90;99.90
25438;DHT22;13364;49.084;9.978;2022-11-15T16:11:45;10.60;99.90
25438;DHT22;13364;49.084;9.978;2022-11-15T16:14:12;11.70;99.90
25438;DHT22;13364;49.084;9.978;2022-11-15T16:16:40;11.70;99.90
25438;DHT22;13364;49.084;9.978;2022-11-15T16:19:09;11.60;99.90
25438;DHT22;13364;49.084;9.978;2022-11-15T16:21:37;11.60;99.90
25438;DHT22;13364;49.084;9.978;2022-11-15T16:24:04;11.60;99.90
25438;DHT22;13364;49.084;9.978;2022-11-15T16:26:32;11.50;99.90
25438;DHT22;13364;49.084;9.978;2022-11-15T16:29:01;11.50;99.90
25438;DHT22;13364;49.084;9.978;2022-11-15T16:31:29;11.40;99.90
25438;DHT22;13364;49.084;9.978;2022-11-15T16:33:56;11.40;99.90
25438;DHT22;13364;49.084;9.978;2022-11-15T16:36:25;11.40;99.90
25438;DHT22;13364;49.084;9.978;2022-11-15T16:39:01;11.30;99.90
25438;DHT22;13364;49.084;9.978;2022-11-15T16:41:31;11.30;99.90
25438;DHT22;13364;49.084;9.978;2022-11-15T16:43:58;11.20;99.90
25438;DHT22;13364;49.084;9.978;2022-11-15T16:46:26;11.20;99.90
25438;DHT22;13364;49.084;9.978;2022-11-15T16:48:54;11.20;99.90
25438;DHT22;13364;49.084;9.978;2022-11-15T16:51:24;11.00;99.90
25438;DHT22;13364;49.084;9.978;2022-11-15T16:53:51;11.10;99.90
25438;DHT22;13364;49.084;9.978;2022-11-15T16:56:25;11.00;99.90
25438;DHT22;13364;49.084;9.978;2022-11-15T16:58:54;11.00;99.90
25438;DHT22;13364;49.084;9.978;2022-11-15T17:01:32;10.90;99.90
25438;DHT22;13364;49.084;9.978;2022-11-15T17:04:02;10.90;99.90
25438;DHT22;13364;49.084;9.978;2022-11-15T17:06:40;10.80;99.90
25438;DHT22;13364;49.084;9.978;2022-11-15T17:09:19;10.80;99.90
25438;DHT22;13364;49.084;9.978;2022-11-15T17:11:46;10.70;99.90
25438;DHT22;13364;49.084;9.978;2022-11-15T17:14:15;10.70;99.90
25438;DHT22;13364;49.084;9.978;2022-11-15T17:16:42;10.60;99.90
25438;DHT22;13364;49.084;9.978;2022-11-15T17:19:16;10.60;99.90
25438;DHT22;13364;49.084;9.978;2022-11-15T17:21:43;10.60;99.90
25438;DHT22;13364;49.084;9.978;2022-11-15T17:24:11;10.50;99.90
25438;DHT22;13364;49.084;9.978;2022-11-15T17:26:38;10.50;99.90
25438;DHT22;13364;49.084;9.978;2022-11-15T17:29:06;10.50;99.90
25438;DHT22;13364;49.084;9.978;2022-11-15T17:31:35;10.40;99.90
25438;DHT22;13364;49.084;9.978;2022-11-15T17:34:03;10.40;99.90
25438;DHT22;13364;49.084;9.978;2022-11-15T17:36:31;10.40;99.90
25438;DHT22;13364;49.084;9.978;2022-11-15T17:38:58;10.30;99.90
25438;DHT22;13364;49.084;9.978;2022-11-15T17:41:27;10.30;99.90
25438;DHT22;13364;49.084;9.978;2022-11-15T17:43:58;10.20;99.90
25438;DHT22;13364;49.084;9.978;2022-11-15T17:46:27;10.20;99.90
25438;DHT22;13364;49.084;9.978;2022-11-15T17:48:55;10.20;99.90
25438;DHT22;13364;49.084;9.978;2022-11-15T17:51:25;10.10;99.90
25438;DHT22;13364;49.084;9.978;2022-11-15T17:53:52;10.10;99.90
25438;DHT22;13364;49.084;9.978;2022-11-15T17:56:20;10.00;99.90
25438;DHT22;13364;49.084;9.978;2022-11-15T18:01:21;10.00;99.90
25438;DHT22;13364;49.084;9.978;2022-11-15T18:03:49;10.00;99.90
25438;DHT22;13364;49.084;9.978;2022-11-15T18:06:18;10.00;99.90
25438;DHT22;13364;49.084;9.978;2022-11-15T18:08:47;9.90;99.90
25438;DHT22;13364;49.084;9.978;2022-11-15T18:11:22;9.90;99.90
25438;DHT22;13364;49.084;9.978;2022-11-15T18:13:52;9.90;99.90
25438;DHT22;13364;49.084;9.978;2022-11-15T18:16:20;9.90;99.90
25438;DHT22;13364;49.084;9.978;2022-11-15T18:18:48;9.90;99.90
25438;DHT22;13364;49.084;9.978;2022-11-15T18:21:19;9.80;99.90
25438;DHT22;13364;49.084;9.978;2022-11-15T18:23:49;9.80;99.90
25438;DHT22;13364;49.084;9.978;2022-11-15T18:26:18;9.80;99.90
25438;DHT22;13364;49.084;9.978;2022-11-15T18:28:52;9.80;99.90
25438;DHT22;13364;49.084;9.978;2022-11-15T18:31:21;9.70;99.90
25438;DHT22;13364;49.084;9.978;2022-11-15T18:33:50;9.70;99.90
25438;DHT22;13364;49.084;9.978;2022-11-15T18:36:22;9.60;99.90
25438;DHT22;13364;49.084;9.978;2022-11-15T18:39:00;9.60;99.90
25438;DHT22;13364;49.084;9.978;2022-11-15T18:41:32;9.60;99.90
25438;DHT22;13364;49.084;9.978;2022-11-15T18:44:01;9.50;99.90
25438;DHT22;13364;49.084;9.978;2022-11-15T18:46:30;9.50;99.90
25438;DHT22;13364;49.084;9.978;2022-11-15T18:48:59;9.50;99.90
25438;DHT22;13364;49.084;9.978;2022-11-15T18:51:28;9.50;99.90
25438;DHT22;13364;49.084;9.978;2022-11-15T18:53:58;9.40;99.90
25438;DHT22;13364;49.084;9.978;2022-11-15T18:56:27;9.40;99.90
25438;DHT22;13364;49.084;9.978;2022-11-15T18:58:57;9.40;99.90
25438;DHT22;13364;49.084;9.978;2022-11-15T19:01:25;9.30;99.90
25438;DHT22;13364;49.084;9.978;2022-11-15T19:03:55;9.30;99.90
25438;DHT22;13364;49.084;9.978;2022-11-15T19:06:24;9.30;99.90
25438;DHT22;13364;49.084;9.978;2022-11-15T19:08:52;9.30;99.90
25438;DHT22;13364;49.084;9.978;2022-11-15T19:11:29;9.20;99.90
25438;DHT22;13364;49.084;9.978;2022-11-15T19:16:42;9.20;99.90
25438;DHT22;13364;49.084;9.978;2022-11-15T19:19:15;9.10;99.90
25438;DHT22;13364;49.084;9.978;2022-11-15T19:21:43;9.20;99.90
25438;DHT22;13364;49.084;9.978;2022-11-15T19:24:10;9.10;99.90
25438;DHT22;13364;49.084;9.978;2022-11-15T19:26:38;9.10;99.90
25438;DHT22;13364;49.084;9.978;2022-11-15T19:29:07;9.10;99.90
25438;DHT22;13364;49.084;9.978;2022-11-15T19:31:36;9.10;99.90
25438;DHT22;13364;49.084;9.978;2022-11-15T19:34:04;9.10;99.90
25438;DHT22;13364;49.084;9.978;2022-11-15T19:36:37;9.10;99.90
25438;DHT22;13364;49.084;9.978;2022-11-15T19:39:08;9.10;99.90
25438;DHT22;13364;49.084;9.978;2022-11-15T19:41:36;9.10;99.90